Time;durP1;ratioP1;P1;durP2;ratioP2;P2;SDS_P1;SDS_P2;PMS_P1;PMS_P2;Temp;Humidity;BMP_temperature;BMP_pressure;BME280_temperature;BME280_humidity;BME280_pressure;Samples;Min_cycle;Max_cycle;Signal;HPM_P1;HPM_P2
2022/09/14 00:01:32;;;;;;;0.30;0.20;;;17.10;73.10;;;;;;5112410;28;20039;-76
2022/09/14 00:04:02;;;;;;;0.17;0.15;;;17.10;73.10;;;;;;5092315;28;20039;-75
2022/09/14 00:06:29;;;;;;;0.65;0.30;;;17.10;73.10;;;;;;5093890;28;20099;-75
2022/09/14 00:08:57;;;;;;;0.40;0.20;;;17.10;73.10;;;;;;5094393;28;20643;-76
2022/09/14 00:11:25;;;;;;;0.40;0.30;;;17.20;73.10;;;;;;5112277;28;20126;-76
2022/09/14 00:13:52;;;;;;;0.15;0.15;;;17.10;73.10;;;;;;5094249;28;20096;-75
2022/09/14 00:16:21;;;;;;;0.10;0.10;;;17.10;73.70;;;;;;5111978;28;20565;-75
2022/09/14 00:18:55;;;;;;;0.20;0.20;;;17.10;73.10;;;;;;5112207;28;20084;-74
2022/09/14 00:21:22;;;;;;;0.47;0.30;;;17.10;73.10;;;;;;5093883;28;20039;-75
2022/09/14 00:23:48;;;;;;;0.38;0.20;;;17.00;73.00;;;;;;5093506;28;20043;-76
2022/09/14 00:26:17;;;;;;;0.20;0.20;;;17.10;73.10;;;;;;5112040;28;20089;-76
2022/09/14 00:28:46;;;;;;;0.20;0.20;;;17.00;73.00;;;;;;5093754;28;20046;-75
2022/09/14 00:31:12;;;;;;;0.22;0.22;;;17.10;73.10;;;;;;5093776;28;20055;-76
2022/09/14 00:33:41;;;;;;;0.80;0.30;;;17.00;73.00;;;;;;5095168;28;20043;-76
2022/09/14 00:36:10;;;;;;;0.15;0.15;;;17.00;73.00;;;;;;5115546;28;20063;-75
2022/09/14 00:38:37;;;;;;;0.73;0.20;;;17.10;73.00;;;;;;5115322;28;20067;-76
2022/09/14 00:41:05;;;;;;;0.22;0.20;;;17.10;73.00;;;;;;5115916;28;20467;-76
2022/09/14 00:43:31;;;;;;;0.10;0.10;;;17.00;73.00;;;;;;5113564;28;20043;-76
2022/09/14 00:46:01;;;;;;;0.20;0.20;;;17.00;73.10;;;;;;5114982;28;20039;-76
2022/09/14 00:48:28;;;;;;;0.55;0.30;;;17.00;73.10;;;;;;5115843;28;20039;-76
2022/09/14 00:50:55;;;;;;;0.77;0.30;;;17.00;73.20;;;;;;5097806;28;20035;-76
2022/09/14 00:53:21;;;;;;;0.32;0.20;;;16.90;73.20;;;;;;5115560;28;20496;-76
2022/09/14 00:55:47;;;;;;;0.35;0.20;;;16.90;73.30;;;;;;5115822;28;20035;-77
2022/09/14 00:58:13;;;;;;;0.30;0.20;;;16.90;73.30;;;;;;5115496;28;20497;-77
2022/09/14 01:00:39;;;;;;;0.20;0.20;;;16.90;73.40;;;;;;5097344;28;20036;-77
2022/09/14 01:03:05;;;;;;;0.20;0.20;;;16.90;73.50;;;;;;5097515;28;20069;-76
2022/09/14 01:05:48;;;;;;;0.65;0.30;;;16.90;73.50;;;;;;5115537;28;20134;-77
2022/09/14 01:08:34;;;;;;;0.20;0.20;;;16.90;73.60;;;;;;5114508;28;20381;-76
2022/09/14 01:11:24;;;;;;;0.57;0.20;;;16.90;73.60;;;;;;5114999;28;20523;-77
2022/09/14 01:14:01;;;;;;;0.20;0.20;;;16.80;73.60;;;;;;5113204;28;20048;-76
2022/09/14 01:16:55;;;;;;;0.20;0.20;;;16.80;73.60;;;;;;5097584;28;20040;-75
2022/09/14 01:19:45;;;;;;;0.75;0.20;;;16.80;73.60;;;;;;5079711;28;20046;-76
2022/09/14 01:22:20;;;;;;;0.45;0.20;;;16.80;73.60;;;;;;5114802;28;20035;-76
2022/09/14 01:24:51;;;;;;;0.10;0.10;;;16.80;73.70;;;;;;5079589;28;20327;-76
2022/09/14 01:27:24;;;;;;;;;;;16.80;73.70;;;;;;5115731;28;20039;-77
2022/09/14 01:30:02;;;;;;;0.28;0.20;;;16.70;73.60;;;;;;5112651;28;19924;-77
2022/09/14 01:32:33;;;;;;;0.55;0.20;;;16.60;73.50;;;;;;5114801;28;20424;-76
2022/09/14 01:35:12;;;;;;;0.15;0.15;;;16.60;73.50;;;;;;5114755;28;20062;-76
2022/09/14 01:37:48;;;;;;;0.10;0.10;;;16.70;73.60;;;;;;5079581;28;20479;-76
2022/09/14 01:40:25;;;;;;;0.20;0.20;;;16.70;73.70;;;;;;5096149;28;20458;-77
2022/09/14 01:42:58;;;;;;;0.47;0.30;;;16.60;73.70;;;;;;5112643;28;20168;-76
2022/09/14 01:45:27;;;;;;;0.30;0.20;;;16.70;73.70;;;;;;5077009;28;20075;-76
2022/09/14 01:47:59;;;;;;;0.85;0.22;;;16.70;73.70;;;;;;5112791;28;20086;-76
2022/09/14 01:50:32;;;;;;;0.77;0.10;;;16.70;73.70;;;;;;5112633;28;20047;-77
2022/09/14 01:53:21;;;;;;;0.13;0.13;;;16.70;73.70;;;;;;5113114;28;20450;-77
2022/09/14 01:55:56;;;;;;;0.20;0.20;;;16.70;73.70;;;;;;5113991;28;20050;-77
2022/09/14 01:58:44;;;;;;;0.20;0.20;;;16.70;73.60;;;;;;5096928;28;20044;-77
2022/09/14 02:01:15;;;;;;;0.20;0.20;;;16.70;73.60;;;;;;5096463;28;20485;-77
2022/09/14 02:03:49;;;;;;;0.20;0.20;;;16.70;73.60;;;;;;5113956;28;20065;-76
2022/09/14 02:06:30;;;;;;;0.20;0.10;;;16.70;73.60;;;;;;5096663;28;20043;-77
2022/09/14 02:08:58;;;;;;;0.55;0.20;;;16.70;73.50;;;;;;5112346;28;20089;-76
2022/09/14 02:11:24;;;;;;;1.65;0.25;;;16.70;73.50;;;;;;5095970;28;20035;-76
2022/09/14 02:13:50;;;;;;;0.35;0.20;;;16.70;73.50;;;;;;5095595;28;20047;-76
2022/09/14 02:16:18;;;;;;;0.45;0.20;;;16.60;73.40;;;;;;5095569;28;20082;-77
2022/09/14 02:18:44;;;;;;;0.10;0.10;;;16.60;73.40;;;;;;5114332;28;20118;-77
2022/09/14 02:21:15;;;;;;;0.30;0.20;;;16.60;73.40;;;;;;5114219;28;20478;-76
2022/09/14 02:23:41;;;;;;;0.10;0.10;;;16.60;73.40;;;;;;5113795;28;20477;-77
2022/09/14 02:26:08;;;;;;;0.10;0.10;;;16.70;73.50;;;;;;5095430;28;20051;-76
2022/09/14 02:28:34;;;;;;;0.20;0.20;;;16.60;73.50;;;;;;5114012;28;20397;-77
2022/09/14 02:31:19;;;;;;;0.38;0.30;;;16.60;73.50;;;;;;5095404;28;20035;-77
2022/09/14 02:34:03;;;;;;;0.15;0.15;;;16.60;73.50;;;;;;5111882;28;20038;-76
2022/09/14 02:36:59;;;;;;;0.77;0.20;;;16.50;73.40;;;;;;5113635;28;20105;-77
2022/09/14 02:39:41;;;;;;;0.20;0.20;;;16.60;73.40;;;;;;5113372;28;20089;-76
2022/09/14 02:42:19;;;;;;;0.73;0.28;;;16.60;73.40;;;;;;5113623;28;20105;-77
2022/09/14 02:44:58;;;;;;;0.50;0.20;;;16.60;73.40;;;;;;5113585;28;20047;-76
2022/09/14 02:47:33;;;;;;;0.20;0.20;;;16.60;73.40;;;;;;5113342;28;20055;-76
2022/09/14 02:50:16;;;;;;;0.40;0.20;;;16.50;73.30;;;;;;5076235;28;20130;-76
2022/09/14 02:52:51;;;;;;;0.30;0.30;;;16.40;73.30;;;;;;5095165;28;20496;-77
2022/09/14 02:55:20;;;;;;;0.10;0.10;;;16.60;73.50;;;;;;5113538;28;20078;-76
2022/09/14 02:58:08;;;;;;;0.10;0.10;;;16.50;73.40;;;;;;5093956;28;20397;-77
2022/09/14 03:00:39;;;;;;;0.63;0.30;;;16.50;73.50;;;;;;5112445;28;20080;-76
2022/09/14 03:03:05;;;;;;;;;;;16.40;73.70;;;;;;5114034;28;20036;-77
2022/09/14 03:05:31;;;;;;;0.25;0.20;;;16.40;73.70;;;;;;5113225;28;19919;-76
2022/09/14 03:07:58;;;;;;;0.20;0.20;;;16.30;73.60;;;;;;5113232;28;20047;-77
2022/09/14 03:10:24;;;;;;;0.20;0.20;;;16.40;73.80;;;;;;5113503;28;20043;-77
2022/09/14 03:12:49;;;;;;;0.13;0.13;;;16.30;73.90;;;;;;5095039;28;20043;-77
2022/09/14 03:15:15;;;;;;;0.30;0.20;;;16.20;74.10;;;;;;5095181;28;20039;-78
2022/09/14 03:17:49;;;;;;;0.35;0.20;;;16.20;74.20;;;;;;5112996;28;20036;-76
2022/09/14 03:20:19;;;;;;;0.10;0.10;;;16.20;74.40;;;;;;5113152;28;20044;-77
2022/09/14 03:22:45;;;;;;;0.10;0.10;;;16.20;74.40;;;;;;5095376;28;20043;-78
2022/09/14 03:25:11;;;;;;;0.10;0.10;;;16.10;74.60;;;;;;5095826;28;20039;-77
2022/09/14 03:27:38;;;;;;;0.20;0.20;;;16.10;74.70;;;;;;5113513;28;20095;-78
2022/09/14 03:30:04;;;;;;;0.10;0.10;;;16.00;74.80;;;;;;5094967;28;20067;-77
2022/09/14 03:32:31;;;;;;;0.65;0.10;;;16.00;74.90;;;;;;5094859;28;20126;-77
2022/09/14 03:34:57;;;;;;;0.10;0.10;;;16.00;75.00;;;;;;5113295;28;20044;-78
2022/09/14 03:37:24;;;;;;;0.10;0.10;;;15.90;75.00;;;;;;5094826;28;20039;-78
2022/09/14 03:39:50;;;;;;;0.50;0.17;;;15.90;75.20;;;;;;5113347;28;20499;-78
2022/09/14 03:42:16;;;;;;;0.20;0.20;;;16.00;75.30;;;;;;5112788;28;20035;-78
2022/09/14 03:44:42;;;;;;;0.20;0.20;;;15.90;75.30;;;;;;5112973;28;20042;-77
2022/09/14 03:47:08;;;;;;;0.70;0.10;;;15.90;75.40;;;;;;5094734;28;20043;-77
2022/09/14 03:49:34;;;;;;;0.10;0.10;;;15.90;75.40;;;;;;5112895;28;20049;-78
2022/09/14 03:51:59;;;;;;;0.38;0.20;;;15.90;75.50;;;;;;5094595;28;20053;-77
2022/09/14 03:54:26;;;;;;;0.25;0.13;;;15.90;75.60;;;;;;5094218;28;20130;-78
2022/09/14 03:56:52;;;;;;;0.45;0.10;;;15.90;75.70;;;;;;5113297;28;20039;-78
2022/09/14 03:59:20;;;;;;;0.28;0.20;;;15.80;75.70;;;;;;5094399;28;20458;-77
2022/09/14 04:01:46;;;;;;;0.40;0.20;;;15.90;75.90;;;;;;5112389;28;20089;-77
2022/09/14 04:04:12;;;;;;;0.32;0.20;;;15.80;75.90;;;;;;5113062;28;20425;-78
2022/09/14 04:06:38;;;;;;;0.10;0.10;;;15.80;75.90;;;;;;5094384;28;20050;-77
2022/09/14 04:09:04;;;;;;;0.10;0.10;;;15.80;76.00;;;;;;5112002;28;20036;-78
2022/09/14 04:11:30;;;;;;;0.10;0.10;;;15.80;76.00;;;;;;5112414;28;20035;-77
2022/09/14 04:14:00;;;;;;;0.10;0.10;;;15.80;76.10;;;;;;5112485;28;20081;-77
2022/09/14 04:16:27;;;;;;;0.10;0.10;;;15.80;76.20;;;;;;5094087;28;20038;-77
2022/09/14 04:18:53;;;;;;;0.10;0.10;;;15.80;76.20;;;;;;5110564;28;20139;-78
2022/09/14 04:21:21;;;;;;;0.35;0.20;;;15.80;76.30;;;;;;5112983;28;20036;-78
2022/09/14 04:23:47;;;;;;;0.22;0.15;;;15.80;76.30;;;;;;5094678;28;20128;-78
2022/09/14 04:26:17;;;;;;;0.30;0.28;;;15.80;76.30;;;;;;5113240;28;20096;-78
2022/09/14 04:28:43;;;;;;;0.38;0.25;;;15.80;76.40;;;;;;5112842;28;20500;-78
2022/09/14 04:31:10;;;;;;;0.10;0.10;;;15.80;76.40;;;;;;5112599;28;20055;-78
2022/09/14 04:33:37;;;;;;;0.10;0.10;;;15.90;76.60;;;;;;5112689;28;20050;-78
2022/09/14 04:36:07;;;;;;;0.10;0.10;;;15.80;76.70;;;;;;5094224;28;20036;-78
2022/09/14 04:38:34;;;;;;;0.10;0.10;;;15.80;76.70;;;;;;5095029;28;20059;-78
2022/09/14 04:41:03;;;;;;;0.20;0.20;;;15.80;76.70;;;;;;5112138;28;20040;-77
2022/09/14 04:43:28;;;;;;;0.13;0.13;;;15.70;76.80;;;;;;5095139;28;20036;-78
2022/09/14 04:46:01;;;;;;;0.30;0.20;;;15.70;76.90;;;;;;5112659;28;20088;-78
2022/09/14 04:48:32;;;;;;;0.20;0.20;;;15.70;76.90;;;;;;5094027;28;20063;-77
2022/09/14 04:51:01;;;;;;;0.30;0.20;;;15.70;77.00;;;;;;5112894;28;20040;-77
2022/09/14 04:53:27;;;;;;;0.10;0.10;;;15.70;77.00;;;;;;5112471;28;20043;-77
2022/09/14 04:55:52;;;;;;;0.30;0.20;;;15.70;77.10;;;;;;5094378;28;20051;-77
2022/09/14 04:58:18;;;;;;;0.10;0.10;;;15.70;77.10;;;;;;5112151;28;20370;-77
2022/09/14 05:00:45;;;;;;;0.20;0.20;;;15.70;77.20;;;;;;5094233;28;20035;-78
2022/09/14 05:03:11;;;;;;;0.25;0.15;;;15.70;77.20;;;;;;5094279;28;20118;-77
2022/09/14 05:05:37;;;;;;;0.20;0.20;;;15.70;77.30;;;;;;5112026;28;20559;-77
2022/09/14 05:08:03;;;;;;;0.30;0.30;;;15.70;77.40;;;;;;5094537;28;20044;-78
2022/09/14 05:10:29;;;;;;;0.55;0.25;;;15.60;77.40;;;;;;5112121;28;20039;-78
2022/09/14 05:12:57;;;;;;;0.10;0.10;;;15.60;77.40;;;;;;5094476;28;20100;-77
2022/09/14 05:15:23;;;;;;;0.20;0.20;;;15.70;77.50;;;;;;5112255;28;20046;-76
2022/09/14 05:17:48;;;;;;;0.85;0.17;;;15.70;77.60;;;;;;5112508;28;20493;-77
2022/09/14 05:20:14;;;;;;;0.20;0.20;;;15.60;77.60;;;;;;5094829;28;20047;-77
2022/09/14 05:22:40;;;;;;;0.20;0.20;;;15.60;77.60;;;;;;5097082;28;20048;-78
2022/09/14 05:25:06;;;;;;;0.20;0.20;;;15.60;77.60;;;;;;5115667;28;20039;-77
2022/09/14 05:27:31;;;;;;;0.13;0.13;;;15.60;77.70;;;;;;5115124;28;20048;-77
2022/09/14 05:29:57;;;;;;;0.20;0.20;;;15.60;77.80;;;;;;5116019;28;20394;-78
2022/09/14 05:32:23;;;;;;;0.15;0.15;;;15.60;77.80;;;;;;5115550;28;20393;-77
2022/09/14 05:34:49;;;;;;;0.10;0.10;;;15.60;77.90;;;;;;5115381;28;20435;-78
2022/09/14 05:37:14;;;;;;;0.25;0.10;;;15.60;78.00;;;;;;5097067;28;20027;-78
2022/09/14 05:39:40;;;;;;;0.20;0.10;;;15.60;78.00;;;;;;5115278;28;20508;-77
2022/09/14 05:42:06;;;;;;;0.22;0.20;;;15.60;78.00;;;;;;5115905;28;20389;-77
2022/09/14 05:44:31;;;;;;;0.20;0.20;;;15.60;78.00;;;;;;5097005;28;20061;-76
2022/09/14 05:46:57;;;;;;;0.40;0.20;;;15.60;78.00;;;;;;5115589;28;20059;-77
2022/09/14 05:49:24;;;;;;;0.10;0.10;;;15.60;78.00;;;;;;5115049;28;20035;-77
2022/09/14 05:51:49;;;;;;;0.20;0.20;;;15.60;78.10;;;;;;5097063;28;20090;-77
2022/09/14 05:54:15;;;;;;;0.20;0.20;;;15.60;78.10;;;;;;5096769;28;20497;-77
2022/09/14 05:56:41;;;;;;;0.20;0.20;;;15.50;78.00;;;;;;5096960;28;20447;-77
2022/09/14 05:59:07;;;;;;;0.30;0.20;;;15.60;78.10;;;;;;5114964;28;20036;-77
2022/09/14 06:01:32;;;;;;;0.57;0.17;;;15.60;78.10;;;;;;5114818;28;20031;-78
2022/09/14 06:04:01;;;;;;;0.50;0.40;;;15.60;78.20;;;;;;5115300;28;20043;-75
2022/09/14 06:06:28;;;;;;;0.20;0.20;;;15.60;78.20;;;;;;5097379;28;20147;-75
2022/09/14 06:08:55;;;;;;;0.20;0.20;;;15.60;78.40;;;;;;5100464;28;20404;-75
2022/09/14 06:11:23;;;;;;;0.20;0.20;;;15.60;78.30;;;;;;5095682;28;20040;-75
2022/09/14 06:13:50;;;;;;;0.20;0.20;;;15.60;78.40;;;;;;5115883;28;20046;-75
2022/09/14 06:16:18;;;;;;;0.47;0.30;;;15.50;78.50;;;;;;5097977;28;20048;-75
2022/09/14 06:18:45;;;;;;;0.20;0.20;;;15.50;78.60;;;;;;5081833;28;20101;-76
2022/09/14 06:21:14;;;;;;;0.40;0.30;;;15.50;78.60;;;;;;5083768;28;20035;-76
2022/09/14 06:23:40;;;;;;;0.95;0.40;;;15.50;78.70;;;;;;5114142;28;20046;-76
2022/09/14 06:26:06;;;;;;;0.43;0.30;;;15.50;78.70;;;;;;5095878;28;20043;-76
2022/09/14 06:28:33;;;;;;;0.38;0.30;;;15.60;78.80;;;;;;5115879;28;20039;-77
2022/09/14 06:30:59;;;;;;;0.30;0.20;;;15.60;78.80;;;;;;5114602;28;20066;-78
2022/09/14 06:33:24;;;;;;;0.40;0.10;;;15.70;78.80;;;;;;5095863;28;20044;-77
2022/09/14 06:36:08;;;;;;;0.35;0.28;;;15.60;78.80;;;;;;5114563;28;20043;-76
2022/09/14 06:38:34;;;;;;;0.32;0.20;;;15.60;78.80;;;;;;5113712;28;20074;-77
2022/09/14 06:41:03;;;;;;;0.75;0.30;;;15.70;78.90;;;;;;5099738;28;20092;-79
2022/09/14 06:43:30;;;;;;;1.17;0.28;;;15.60;78.90;;;;;;5113995;28;20035;-75
2022/09/14 06:46:01;;;;;;;1.48;0.47;;;15.60;79.00;;;;;;5096508;28;20073;-74
2022/09/14 06:48:29;;;;;;;0.45;0.25;;;15.60;79.10;;;;;;5112983;28;20043;-74
2022/09/14 06:50:55;;;;;;;0.40;0.20;;;15.60;79.20;;;;;;5079796;28;20477;-77
2022/09/14 06:53:24;;;;;;;0.22;0.22;;;15.60;79.20;;;;;;5096673;28;20126;-76
2022/09/14 06:55:53;;;;;;;0.35;0.35;;;15.60;79.30;;;;;;5095565;28;20031;-75
2022/09/14 06:58:33;;;;;;;0.30;0.30;;;15.60;79.30;;;;;;5037842;28;20036;-76
2022/09/14 07:01:55;;;;;;;0.20;0.20;;;15.60;79.30;;;;;;4994564;28;20086;-76
2022/09/14 07:05:37;;;;;;;0.30;0.28;;;15.70;79.30;;;;;;4941847;28;20039;-75
2022/09/14 07:12:31;;;;;;;0.32;0.20;;;15.60;79.20;;;;;;4837887;29;20130;-77
2022/09/14 07:15:10;;;;;;;0.13;0.13;;;15.60;79.20;;;;;;4820996;29;20069;-75
2022/09/14 07:17:36;;;;;;;0.20;0.20;;;15.60;79.20;;;;;;4802778;29;20051;-75
2022/09/14 07:20:11;;;;;;;0.50;0.20;;;15.70;79.20;;;;;;4797398;29;20051;-76
2022/09/14 07:59:37;;;;;;;0.20;0.20;;;15.80;79.00;;;;;;4765168;30;20426;-76
2022/09/14 08:05:06;;;;;;;0.13;0.13;;;16.00;78.80;;;;;;4880716;29;20129;-75
2022/09/14 08:07:57;;;;;;;0.32;0.20;;;16.00;78.80;;;;;;4914582;29;20054;-75
2022/09/14 08:14:59;;;;;;;0.20;0.20;;;16.20;79.00;;;;;;4954540;28;20058;-76
2022/09/14 08:17:59;;;;;;;0.20;0.20;;;16.00;78.80;;;;;;4930895;29;20039;-76
2022/09/14 08:20:26;;;;;;;0.30;0.20;;;16.00;79.00;;;;;;4967808;28;20112;-76
2022/09/14 08:22:52;;;;;;;0.22;0.22;;;16.00;79.00;;;;;;4954142;28;20055;-76
2022/09/14 09:20:33;;;;;;;0.47;0.20;;;16.10;79.50;;;;;;4732475;30;20087;-76
2022/09/14 10:10:41;;;;;;;0.75;0.20;;;16.40;79.90;;;;;;4857842;29;20425;-75
2022/09/14 10:20:27;;;;;;;0.25;0.22;;;16.40;80.00;;;;;;4741556;30;20050;-75
2022/09/14 10:22:53;;;;;;;0.10;0.10;;;16.40;80.00;;;;;;4765240;30;20123;-75
2022/09/14 10:25:22;;;;;;;0.20;0.20;;;16.40;80.10;;;;;;4750252;30;20040;-75
2022/09/14 10:27:57;;;;;;;0.10;0.10;;;16.40;80.00;;;;;;4750260;30;20040;-75
2022/09/14 10:30:30;;;;;;;0.55;0.20;;;16.40;80.00;;;;;;4764596;30;20044;-75
2022/09/14 10:33:01;;;;;;;0.30;0.30;;;16.50;80.10;;;;;;4735482;30;20058;-75
2022/09/14 10:35:44;;;;;;;0.20;0.20;;;16.50;80.10;;;;;;4750636;30;20741;-76
2022/09/14 10:38:23;;;;;;;0.20;0.20;;;16.50;80.00;;;;;;4764886;30;20044;-76
2022/09/14 10:41:00;;;;;;;0.50;0.30;;;16.60;79.90;;;;;;4750135;30;20037;-76
2022/09/14 10:43:59;;;;;;;0.20;0.20;;;16.60;79.90;;;;;;4775166;30;20051;-76
2022/09/14 10:46:44;;;;;;;0.20;0.20;;;16.60;79.90;;;;;;4785788;30;20051;-76
2022/09/14 10:49:36;;;;;;;0.20;0.20;;;16.70;79.90;;;;;;4785974;30;20044;-76
2022/09/14 10:52:25;;;;;;;0.28;0.28;;;16.70;79.90;;;;;;4771170;30;20043;-76
2022/09/14 10:55:30;;;;;;;0.57;0.40;;;16.80;79.90;;;;;;4860772;29;20058;-76
2022/09/14 10:58:17;;;;;;;1.10;0.68;;;16.80;79.80;;;;;;4972644;28;20045;-76
2022/09/14 11:01:05;;;;;;;0.65;0.65;;;16.80;79.80;;;;;;4956985;28;20102;-76
2022/09/14 11:04:03;;;;;;;0.35;0.32;;;16.80;79.90;;;;;;4973153;28;20493;-77
2022/09/14 11:06:53;;;;;;;0.32;0.32;;;16.80;79.80;;;;;;4954165;28;20047;-76
2022/09/14 11:10:05;;;;;;;0.43;0.40;;;16.90;79.80;;;;;;4945627;28;20043;-78
2022/09/14 11:38:22;;;;;;;0.22;0.22;;;16.90;79.70;;;;;;4771603;29;20071;-76
2022/09/14 11:45:18;;;;;;;0.30;0.30;;;17.10;79.70;;;;;;4747613;30;20607;-76
2022/09/14 13:16:21;;;;;;;0.20;0.20;;;18.30;77.70;;;;;;4960912;28;20159;-77
2022/09/14 13:26:30;;;;;;;0.40;0.30;;;18.50;77.40;;;;;;4786828;29;20468;-76
2022/09/14 13:29:30;;;;;;;0.73;0.30;;;18.50;77.30;;;;;;4785649;29;20054;-76
2022/09/14 13:35:46;;;;;;;0.40;0.40;;;18.60;77.50;;;;;;4743551;30;20513;-75
2022/09/14 13:38:20;;;;;;;0.63;0.30;;;18.50;77.80;;;;;;4732194;30;20036;-76
2022/09/14 14:04:19;;;;;;;0.20;0.20;;;18.90;76.90;;;;;;4643444;30;20100;-78
2022/09/14 14:28:44;;;;;;;0.90;0.28;;;19.10;76.40;;;;;;4877951;29;20075;-77
2022/09/14 14:44:20;;;;;;;0.30;0.22;;;19.10;76.40;;;;;;4822023;29;20114;-76
2022/09/14 15:08:45;;;;;;;0.20;0.20;;;19.40;76.00;;;;;;4688154;30;20058;-77
2022/09/14 15:11:16;;;;;;;0.30;0.30;;;19.40;75.80;;;;;;4690896;30;20057;-74
2022/09/14 15:13:43;;;;;;;0.70;0.40;;;19.40;75.50;;;;;;4700951;30;20048;-74
2022/09/14 15:16:08;;;;;;;0.32;0.20;;;19.40;75.40;;;;;;4736622;30;20063;-75
2022/09/14 15:18:34;;;;;;;0.52;0.20;;;19.40;75.50;;;;;;4749675;30;20052;-74
2022/09/14 15:21:00;;;;;;;1.35;0.40;;;19.40;75.50;;;;;;4749436;30;20133;-74
2022/09/14 15:23:26;;;;;;;0.30;0.30;;;19.30;75.40;;;;;;4734722;30;20052;-76
2022/09/14 15:25:52;;;;;;;0.30;0.30;;;19.40;75.60;;;;;;4756298;30;20035;-75
2022/09/14 15:28:18;;;;;;;0.80;0.40;;;19.30;75.60;;;;;;4785735;30;20537;-76
2022/09/14 15:30:43;;;;;;;0.20;0.20;;;19.30;75.70;;;;;;4785167;29;20082;-75
2022/09/14 15:33:10;;;;;;;0.85;0.50;;;19.20;76.00;;;;;;4785767;30;20067;-76
2022/09/14 15:35:36;;;;;;;0.30;0.22;;;19.20;75.90;;;;;;4817519;29;20516;-75
2022/09/14 15:38:02;;;;;;;1.40;0.40;;;19.20;76.00;;;;;;4816522;29;20194;-76
2022/09/14 15:40:27;;;;;;;0.28;0.28;;;19.20;75.90;;;;;;4804874;29;20514;-75
2022/09/14 15:42:53;;;;;;;0.30;0.30;;;19.10;76.00;;;;;;4821446;29;20042;-75
2022/09/14 15:45:19;;;;;;;0.75;0.40;;;19.20;76.10;;;;;;4935002;28;20045;-75
2022/09/14 15:47:45;;;;;;;0.20;0.20;;;19.20;75.80;;;;;;4973374;28;20065;-76
2022/09/14 15:50:12;;;;;;;0.30;0.25;;;19.30;75.70;;;;;;4973711;28;20038;-76
2022/09/14 15:52:38;;;;;;;0.30;0.30;;;19.30;75.60;;;;;;4973423;28;20067;-76
2022/09/14 15:55:07;;;;;;;0.30;0.30;;;19.30;75.40;;;;;;4973521;28;20050;-76
2022/09/14 15:57:33;;;;;;;0.75;0.40;;;19.20;75.40;;;;;;4973597;28;20390;-76
2022/09/14 15:59:59;;;;;;;0.30;0.30;;;19.20;75.70;;;;;;4973314;28;20031;-76
2022/09/14 16:02:25;;;;;;;0.25;0.20;;;19.20;75.70;;;;;;4955850;28;20035;-76
2022/09/14 16:04:50;;;;;;;1.00;0.45;;;19.20;75.70;;;;;;4972770;28;20034;-76
2022/09/14 16:07:16;;;;;;;0.68;0.40;;;19.20;75.60;;;;;;4954078;28;20047;-75
2022/09/14 16:09:43;;;;;;;0.55;0.50;;;19.20;75.50;;;;;;4923496;28;20489;-75
2022/09/14 16:12:11;;;;;;;1.33;0.50;;;19.00;75.70;;;;;;4923559;28;20038;-75
2022/09/14 16:14:37;;;;;;;0.40;0.40;;;18.90;75.90;;;;;;4923073;28;20054;-76
2022/09/14 16:17:03;;;;;;;0.90;0.50;;;18.80;76.10;;;;;;4939546;28;20050;-75
2022/09/14 16:19:29;;;;;;;0.68;0.40;;;18.70;76.20;;;;;;4923994;28;20070;-76
2022/09/14 16:21:56;;;;;;;0.63;0.40;;;18.70;76.30;;;;;;4938369;28;20494;-75
2022/09/14 16:24:23;;;;;;;0.88;0.40;;;18.60;76.30;;;;;;4923105;28;20086;-75
2022/09/14 16:26:49;;;;;;;1.02;0.38;;;18.70;76.50;;;;;;4956137;28;20057;-75
2022/09/14 16:29:17;;;;;;;0.93;0.43;;;18.50;76.40;;;;;;4923714;28;20035;-76
2022/09/14 16:31:47;;;;;;;2.95;0.50;;;18.50;76.50;;;;;;4972572;28;20043;-73
2022/09/14 16:34:16;;;;;;;0.47;0.30;;;18.40;76.40;;;;;;4955823;28;20042;-77
2022/09/14 16:36:43;;;;;;;1.23;0.40;;;18.40;76.70;;;;;;4955285;28;20039;-76
2022/09/14 16:39:12;;;;;;;0.30;0.30;;;18.20;76.60;;;;;;4937969;28;20067;-75
2022/09/14 16:41:40;;;;;;;1.10;0.45;;;18.30;76.80;;;;;;4972449;28;20570;-75
2022/09/14 16:44:14;;;;;;;0.40;0.40;;;18.20;76.80;;;;;;4962189;28;20062;-75
2022/09/14 16:46:40;;;;;;;0.80;0.40;;;18.20;76.90;;;;;;4954441;28;20134;-75
2022/09/14 16:49:05;;;;;;;0.30;0.30;;;18.10;76.90;;;;;;4972358;28;20168;-75
2022/09/14 16:51:32;;;;;;;0.70;0.32;;;18.10;77.00;;;;;;4972836;28;20035;-76
2022/09/14 16:53:59;;;;;;;0.65;0.50;;;18.20;77.00;;;;;;4972375;28;20054;-75
2022/09/14 16:56:28;;;;;;;1.23;0.50;;;18.00;76.90;;;;;;4972783;28;20046;-74
2022/09/14 16:58:55;;;;;;;0.47;0.30;;;17.90;76.90;;;;;;4972197;28;20488;-74
2022/09/14 17:01:24;;;;;;;1.05;0.65;;;18.00;77.10;;;;;;4955226;28;20070;-74
2022/09/14 17:03:52;;;;;;;1.75;0.55;;;17.90;77.20;;;;;;4953601;28;20051;-74
2022/09/14 17:06:24;;;;;;;0.88;0.60;;;17.90;77.30;;;;;;4972329;28;20047;-74
2022/09/14 17:08:53;;;;;;;1.02;0.50;;;17.80;77.40;;;;;;4953484;28;20098;-75
2022/09/14 17:11:19;;;;;;;0.60;0.30;;;17.70;77.40;;;;;;4955850;28;20035;-75
2022/09/14 17:13:45;;;;;;;0.43;0.43;;;17.70;78.20;;;;;;4955185;28;20473;-74
2022/09/14 17:16:14;;;;;;;0.40;0.40;;;17.70;77.60;;;;;;4974831;28;20054;-74
2022/09/14 17:18:41;;;;;;;0.30;0.30;;;17.60;77.60;;;;;;4975636;28;20034;-74
2022/09/14 17:21:10;;;;;;;0.98;0.50;;;17.60;77.70;;;;;;4975626;28;20050;-74
2022/09/14 17:23:36;;;;;;;0.40;0.40;;;17.50;77.60;;;;;;4958443;28;20077;-74
2022/09/14 17:26:04;;;;;;;0.45;0.30;;;17.60;77.70;;;;;;4940415;28;20042;-74
2022/09/14 17:28:31;;;;;;;0.50;0.50;;;17.60;77.70;;;;;;4958238;28;20531;-74
2022/09/14 17:30:59;;;;;;;0.40;0.40;;;17.50;77.70;;;;;;4976076;28;20089;-74
2022/09/14 17:33:26;;;;;;;1.00;0.38;;;17.60;77.90;;;;;;4957019;28;20043;-74
2022/09/14 17:35:55;;;;;;;0.45;0.20;;;17.50;77.90;;;;;;4975595;28;20141;-74
2022/09/14 17:38:24;;;;;;;0.38;0.30;;;17.50;77.90;;;;;;4942328;28;20117;-74
2022/09/14 17:40:50;;;;;;;0.30;0.28;;;17.40;77.90;;;;;;4958661;28;20500;-75
2022/09/14 17:43:19;;;;;;;0.40;0.30;;;17.40;78.00;;;;;;4975961;28;20053;-74
2022/09/14 17:45:55;;;;;;;0.40;0.40;;;17.40;78.00;;;;;;4975661;28;20504;-76
2022/09/14 17:48:22;;;;;;;0.30;0.30;;;17.40;78.10;;;;;;4975251;28;20146;-73
2022/09/14 17:50:48;;;;;;;0.85;0.50;;;17.30;78.20;;;;;;4975692;28;20098;-75
2022/09/14 17:53:14;;;;;;;0.47;0.30;;;17.30;78.30;;;;;;4975144;28;20505;-75
2022/09/14 17:55:40;;;;;;;0.40;0.30;;;17.20;78.30;;;;;;4975211;28;20053;-75
2022/09/14 17:58:06;;;;;;;0.32;0.30;;;17.20;78.40;;;;;;4958056;28;20393;-77
2022/09/14 18:00:32;;;;;;;0.40;0.28;;;17.10;78.50;;;;;;4975128;28;20054;-75
2022/09/14 18:02:58;;;;;;;0.30;0.30;;;17.20;78.60;;;;;;4957316;28;20396;-76
2022/09/14 18:05:24;;;;;;;0.52;0.35;;;17.10;78.70;;;;;;4957849;28;20093;-75
2022/09/14 18:07:50;;;;;;;0.30;0.30;;;17.00;78.80;;;;;;4957838;28;20050;-75
2022/09/14 18:10:17;;;;;;;0.70;0.43;;;17.00;78.90;;;;;;4974802;28;20066;-75
2022/09/14 18:12:43;;;;;;;0.57;0.20;;;17.00;79.00;;;;;;4974778;28;20054;-76
2022/09/14 18:15:11;;;;;;;0.30;0.30;;;17.00;79.00;;;;;;4974846;28;20043;-76
2022/09/14 18:17:38;;;;;;;0.77;0.40;;;17.00;79.10;;;;;;4957762;28;20043;-76
2022/09/14 18:20:04;;;;;;;0.30;0.30;;;16.90;79.00;;;;;;4975433;28;20035;-76
2022/09/14 18:22:30;;;;;;;0.35;0.30;;;16.90;79.10;;;;;;4957817;28;20038;-76
2022/09/14 18:24:56;;;;;;;0.43;0.25;;;16.90;79.10;;;;;;4975181;28;20409;-76
2022/09/14 18:27:21;;;;;;;0.30;0.30;;;16.80;79.10;;;;;;4974666;28;20061;-76
2022/09/14 18:29:47;;;;;;;0.60;0.40;;;16.80;79.30;;;;;;4955939;28;20042;-75
2022/09/14 18:32:13;;;;;;;0.22;0.20;;;16.80;79.30;;;;;;4974911;28;20043;-76
2022/09/14 18:34:39;;;;;;;0.77;0.50;;;16.80;79.40;;;;;;4953313;28;20047;-76
2022/09/14 18:37:04;;;;;;;0.30;0.20;;;16.70;79.40;;;;;;4974558;28;20042;-76
2022/09/14 18:39:30;;;;;;;0.30;0.30;;;16.60;79.50;;;;;;4957085;28;20117;-77
2022/09/14 18:41:56;;;;;;;0.57;0.30;;;16.60;79.60;;;;;;4957241;28;20039;-76
2022/09/14 18:44:22;;;;;;;0.30;0.30;;;16.50;79.60;;;;;;4974268;28;20042;-76
2022/09/14 18:46:49;;;;;;;1.10;0.40;;;16.50;79.70;;;;;;4924756;28;20047;-75
2022/09/14 18:49:18;;;;;;;0.30;0.30;;;16.50;79.80;;;;;;4974311;28;20058;-76
2022/09/14 18:51:44;;;;;;;0.93;0.40;;;16.30;79.80;;;;;;4955671;28;20109;-77
2022/09/14 18:54:12;;;;;;;0.60;0.30;;;16.40;80.00;;;;;;4957027;28;20046;-77
2022/09/14 18:56:38;;;;;;;0.28;0.28;;;16.40;80.00;;;;;;4974568;28;20505;-77
2022/09/14 18:59:10;;;;;;;0.20;0.20;;;16.30;80.10;;;;;;4974451;28;20046;-77
2022/09/14 19:01:36;;;;;;;0.45;0.40;;;16.30;80.20;;;;;;4974217;28;20436;-76
2022/09/14 19:04:05;;;;;;;1.65;0.40;;;16.30;80.30;;;;;;4974021;28;20118;-77
2022/09/14 19:06:32;;;;;;;0.30;0.30;;;16.30;80.30;;;;;;4973989;28;20043;-78
2022/09/14 19:08:58;;;;;;;0.40;0.40;;;16.20;80.30;;;;;;4957114;28;20042;-77
2022/09/14 19:11:26;;;;;;;0.55;0.40;;;16.10;80.30;;;;;;4956631;28;20134;-77
2022/09/14 19:14:01;;;;;;;0.30;0.30;;;16.10;80.30;;;;;;4933215;29;20036;-77